sensor_id;sensor_type;location;lat;lon;timestamp;temperature;humidity
15286;DHT22;7744;52.172;10.668;2023-09-08T00:00:49;17.70;99.90
15286;DHT22;7744;52.172;10.668;2023-09-08T00:03:14;17.60;99.90
15286;DHT22;7744;52.172;10.668;2023-09-08T00:05:41;17.60;99.90
15286;DHT22;7744;52.172;10.668;2023-09-08T00:08:06;17.60;92.80
15286;DHT22;7744;52.172;10.668;2023-09-08T00:10:32;17.50;99.90
15286;DHT22;7744;52.172;10.668;2023-09-08T00:12:57;17.40;99.90
15286;DHT22;7744;52.172;10.668;2023-09-08T00:15:23;17.50;99.90
15286;DHT22;7744;52.172;10.668;2023-09-08T00:17:49;16.20;99.90
15286;DHT22;7744;52.172;10.668;2023-09-08T00:22:40;17.50;99.90
15286;DHT22;7744;52.172;10.668;2023-09-08T00:25:06;17.40;99.90
15286;DHT22;7744;52.172;10.668;2023-09-08T00:27:32;17.30;99.90
15286;DHT22;7744;52.172;10.668;2023-09-08T00:29:58;17.30;99.90
15286;DHT22;7744;52.172;10.668;2023-09-08T00:32:23;17.20;99.90
15286;DHT22;7744;52.172;10.668;2023-09-08T00:34:49;17.10;99.90
15286;DHT22;7744;52.172;10.668;2023-09-08T00:37:15;17.10;99.90
15286;DHT22;7744;52.172;10.668;2023-09-08T00:39:40;17.20;99.90
15286;DHT22;7744;52.172;10.668;2023-09-08T00:42:06;17.00;99.90
15286;DHT22;7744;52.172;10.668;2023-09-08T00:44:35;17.00;99.90
15286;DHT22;7744;52.172;10.668;2023-09-08T00:47:00;17.00;99.90
15286;DHT22;7744;52.172;10.668;2023-09-08T00:49:26;17.00;99.90
15286;DHT22;7744;52.172;10.668;2023-09-08T00:51:52;16.80;1.00
15286;DHT22;7744;52.172;10.668;2023-09-08T00:56:44;17.00;99.90
15286;DHT22;7744;52.172;10.668;2023-09-08T01:04:04;18.20;99.90
15286;DHT22;7744;52.172;10.668;2023-09-08T01:06:31;17.10;99.90
15286;DHT22;7744;52.172;10.668;2023-09-08T01:08:58;17.00;99.90
15286;DHT22;7744;52.172;10.668;2023-09-08T01:11:25;17.00;99.90
15286;DHT22;7744;52.172;10.668;2023-09-08T01:13:51;17.00;99.90
15286;DHT22;7744;52.172;10.668;2023-09-08T01:16:16;17.00;99.90
15286;DHT22;7744;52.172;10.668;2023-09-08T01:18:43;16.90;99.90
15286;DHT22;7744;52.172;10.668;2023-09-08T01:21:28;17.00;99.90
15286;DHT22;7744;52.172;10.668;2023-09-08T01:24:17;17.00;99.90
15286;DHT22;7744;52.172;10.668;2023-09-08T01:26:46;17.00;99.90
15286;DHT22;7744;52.172;10.668;2023-09-08T01:29:13;17.10;99.90
15286;DHT22;7744;52.172;10.668;2023-09-08T01:31:40;17.00;99.90
15286;DHT22;7744;52.172;10.668;2023-09-08T01:34:06;17.00;99.90
15286;DHT22;7744;52.172;10.668;2023-09-08T01:36:35;17.00;99.90
15286;DHT22;7744;52.172;10.668;2023-09-08T01:39:01;16.90;99.90
15286;DHT22;7744;52.172;10.668;2023-09-08T01:41:27;17.00;99.90
15286;DHT22;7744;52.172;10.668;2023-09-08T01:43:53;17.00;99.90
15286;DHT22;7744;52.172;10.668;2023-09-08T01:46:20;17.00;99.90
15286;DHT22;7744;52.172;10.668;2023-09-08T01:48:45;17.00;99.90
15286;DHT22;7744;52.172;10.668;2023-09-08T01:51:11;16.90;99.90
15286;DHT22;7744;52.172;10.668;2023-09-08T01:53:36;16.90;99.90
15286;DHT22;7744;52.172;10.668;2023-09-08T01:56:02;16.90;99.90
15286;DHT22;7744;52.172;10.668;2023-09-08T01:58:28;16.90;99.90
15286;DHT22;7744;52.172;10.668;2023-09-08T02:00:55;16.90;99.90
15286;DHT22;7744;52.172;10.668;2023-09-08T02:03:20;17.00;99.90
15286;DHT22;7744;52.172;10.668;2023-09-08T02:05:46;16.80;99.90
15286;DHT22;7744;52.172;10.668;2023-09-08T02:08:12;16.80;99.90
15286;DHT22;7744;52.172;10.668;2023-09-08T02:10:40;16.70;99.90
15286;DHT22;7744;52.172;10.668;2023-09-08T02:13:05;16.70;99.90
15286;DHT22;7744;52.172;10.668;2023-09-08T02:15:32;16.70;99.90
15286;DHT22;7744;52.172;10.668;2023-09-08T02:20:25;16.60;1.00
15286;DHT22;7744;52.172;10.668;2023-09-08T02:22:54;16.60;99.90
15286;DHT22;7744;52.172;10.668;2023-09-08T02:25:20;16.60;99.90
15286;DHT22;7744;52.172;10.668;2023-09-08T02:27:45;16.60;99.90
15286;DHT22;7744;52.172;10.668;2023-09-08T02:30:11;16.50;99.90
15286;DHT22;7744;52.172;10.668;2023-09-08T02:32:37;16.50;99.90
15286;DHT22;7744;52.172;10.668;2023-09-08T02:35:02;16.60;1.00
15286;DHT22;7744;52.172;10.668;2023-09-08T02:37:28;16.20;1.00
15286;DHT22;7744;52.172;10.668;2023-09-08T02:39:54;16.10;1.00
15286;DHT22;7744;52.172;10.668;2023-09-08T02:42:19;16.10;1.00
15286;DHT22;7744;52.172;10.668;2023-09-08T02:44:45;16.10;1.00
15286;DHT22;7744;52.172;10.668;2023-09-08T02:47:10;16.10;1.00
15286;DHT22;7744;52.172;10.668;2023-09-08T02:49:36;16.20;1.00
15286;DHT22;7744;52.172;10.668;2023-09-08T02:52:01;16.20;1.00
15286;DHT22;7744;52.172;10.668;2023-09-08T02:54:27;16.30;1.00
15286;DHT22;7744;52.172;10.668;2023-09-08T02:56:53;16.30;1.00
15286;DHT22;7744;52.172;10.668;2023-09-08T02:59:18;16.30;1.00
15286;DHT22;7744;52.172;10.668;2023-09-08T03:01:44;16.40;1.00
15286;DHT22;7744;52.172;10.668;2023-09-08T03:04:10;16.30;1.00
15286;DHT22;7744;52.172;10.668;2023-09-08T03:06:35;16.40;1.00
15286;DHT22;7744;52.172;10.668;2023-09-08T03:09:01;16.20;1.00
15286;DHT22;7744;52.172;10.668;2023-09-08T03:11:26;16.10;1.00
15286;DHT22;7744;52.172;10.668;2023-09-08T03:13:52;15.90;1.00
15286;DHT22;7744;52.172;10.668;2023-09-08T03:16:17;15.90;1.00
15286;DHT22;7744;52.172;10.668;2023-09-08T03:18:43;16.10;1.00
15286;DHT22;7744;52.172;10.668;2023-09-08T03:21:09;16.20;1.00
15286;DHT22;7744;52.172;10.668;2023-09-08T03:23:39;16.20;1.00
15286;DHT22;7744;52.172;10.668;2023-09-08T03:26:05;16.00;1.00
15286;DHT22;7744;52.172;10.668;2023-09-08T03:28:32;16.10;1.00
15286;DHT22;7744;52.172;10.668;2023-09-08T03:30:58;16.10;1.00
15286;DHT22;7744;52.172;10.668;2023-09-08T03:33:23;16.30;1.00
15286;DHT22;7744;52.172;10.668;2023-09-08T03:35:49;16.10;1.00
15286;DHT22;7744;52.172;10.668;2023-09-08T03:38:14;15.90;1.00
15286;DHT22;7744;52.172;10.668;2023-09-08T03:40:40;16.00;1.00
15286;DHT22;7744;52.172;10.668;2023-09-08T03:43:06;16.00;1.00
15286;DHT22;7744;52.172;10.668;2023-09-08T03:45:32;16.10;1.00
15286;DHT22;7744;52.172;10.668;2023-09-08T03:47:57;15.70;1.00
15286;DHT22;7744;52.172;10.668;2023-09-08T03:50:24;16.20;1.00
15286;DHT22;7744;52.172;10.668;2023-09-08T03:52:50;16.10;1.00
15286;DHT22;7744;52.172;10.668;2023-09-08T03:55:15;16.20;1.00
15286;DHT22;7744;52.172;10.668;2023-09-08T03:57:42;16.10;1.00
15286;DHT22;7744;52.172;10.668;2023-09-08T04:00:08;16.00;1.00
15286;DHT22;7744;52.172;10.668;2023-09-08T04:02:36;16.00;1.00
15286;DHT22;7744;52.172;10.668;2023-09-08T04:05:02;16.20;1.00
15286;DHT22;7744;52.172;10.668;2023-09-08T04:07:27;16.10;1.00
15286;DHT22;7744;52.172;10.668;2023-09-08T04:09:53;16.10;1.00
15286;DHT22;7744;52.172;10.668;2023-09-08T04:12:19;16.10;1.00
15286;DHT22;7744;52.172;10.668;2023-09-08T04:14:44;16.10;1.00
15286;DHT22;7744;52.172;10.668;2023-09-08T04:17:10;16.00;1.00
15286;DHT22;7744;52.172;10.668;2023-09-08T04:19:35;16.00;1.00
15286;DHT22;7744;52.172;10.668;2023-09-08T04:22:01;16.10;1.00
15286;DHT22;7744;52.172;10.668;2023-09-08T04:24:26;16.00;1.00
15286;DHT22;7744;52.172;10.668;2023-09-08T04:26:52;16.00;1.00
15286;DHT22;7744;52.172;10.668;2023-09-08T04:29:18;16.00;1.00
15286;DHT22;7744;52.172;10.668;2023-09-08T04:31:44;16.10;1.00
15286;DHT22;7744;52.172;10.668;2023-09-08T04:34:10;16.10;1.00
15286;DHT22;7744;52.172;10.668;2023-09-08T04:36:35;16.00;1.00
15286;DHT22;7744;52.172;10.668;2023-09-08T04:39:01;16.00;1.00
15286;DHT22;7744;52.172;10.668;2023-09-08T04:41:26;15.70;1.00
15286;DHT22;7744;52.172;10.668;2023-09-08T04:43:52;15.80;1.00
15286;DHT22;7744;52.172;10.668;2023-09-08T04:46:18;15.90;1.00
15286;DHT22;7744;52.172;10.668;2023-09-08T04:48:43;15.90;1.00
15286;DHT22;7744;52.172;10.668;2023-09-08T04:51:09;16.00;1.00
15286;DHT22;7744;52.172;10.668;2023-09-08T04:53:34;15.90;1.00
15286;DHT22;7744;52.172;10.668;2023-09-08T04:56:01;16.00;1.00
15286;DHT22;7744;52.172;10.668;2023-09-08T04:58:27;15.90;1.00
15286;DHT22;7744;52.172;10.668;2023-09-08T05:00:53;16.20;1.00
15286;DHT22;7744;52.172;10.668;2023-09-08T05:03:18;16.10;1.00
15286;DHT22;7744;52.172;10.668;2023-09-08T05:05:44;15.90;1.00
15286;DHT22;7744;52.172;10.668;2023-09-08T05:08:10;15.90;1.00
15286;DHT22;7744;52.172;10.668;2023-09-08T05:10:35;16.00;1.00
15286;DHT22;7744;52.172;10.668;2023-09-08T05:13:01;16.00;1.00
15286;DHT22;7744;52.172;10.668;2023-09-08T05:15:27;15.90;1.00
15286;DHT22;7744;52.172;10.668;2023-09-08T05:17:53;15.90;1.00
15286;DHT22;7744;52.172;10.668;2023-09-08T05:20:18;16.00;1.00
15286;DHT22;7744;52.172;10.668;2023-09-08T05:22:44;16.00;1.00
15286;DHT22;7744;52.172;10.668;2023-09-08T05:25:10;16.10;1.00
15286;DHT22;7744;52.172;10.668;2023-09-08T05:27:35;16.10;1.00
15286;DHT22;7744;52.172;10.668;2023-09-08T05:30:01;16.10;1.00
15286;DHT22;7744;52.172;10.668;2023-09-08T05:32:27;16.10;1.00
15286;DHT22;7744;52.172;10.668;2023-09-08T05:34:52;18.10;1.00
15286;DHT22;7744;52.172;10.668;2023-09-08T05:37:18;15.80;1.00
15286;DHT22;7744;52.172;10.668;2023-09-08T05:39:43;15.70;99.90
15286;DHT22;7744;52.172;10.668;2023-09-08T05:42:09;15.90;98.30
15286;DHT22;7744;52.172;10.668;2023-09-08T05:44:35;15.90;99.90
15286;DHT22;7744;52.172;10.668;2023-09-08T05:47:00;16.00;89.50
15286;DHT22;7744;52.172;10.668;2023-09-08T05:49:26;16.00;1.00
15286;DHT22;7744;52.172;10.668;2023-09-08T05:51:52;16.20;12.70
15286;DHT22;7744;52.172;10.668;2023-09-08T05:54:17;16.20;57.80
15286;DHT22;7744;52.172;10.668;2023-09-08T05:56:44;16.30;13.90
15286;DHT22;7744;52.172;10.668;2023-09-08T05:59:09;16.20;99.90
15286;DHT22;7744;52.172;10.668;2023-09-08T06:01:36;16.20;99.90
15286;DHT22;7744;52.172;10.668;2023-09-08T06:04:02;16.00;1.00
15286;DHT22;7744;52.172;10.668;2023-09-08T06:06:28;16.00;1.00
15286;DHT22;7744;52.172;10.668;2023-09-08T06:08:54;15.90;99.90
15286;DHT22;7744;52.172;10.668;2023-09-08T06:11:20;15.90;99.90
15286;DHT22;7744;52.172;10.668;2023-09-08T06:13:45;15.80;1.00
15286;DHT22;7744;52.172;10.668;2023-09-08T06:16:11;16.10;1.00
15286;DHT22;7744;52.172;10.668;2023-09-08T06:18:37;16.20;1.00
15286;DHT22;7744;52.172;10.668;2023-09-08T06:21:08;16.20;1.00
15286;DHT22;7744;52.172;10.668;2023-09-08T06:23:34;16.20;99.90
15286;DHT22;7744;52.172;10.668;2023-09-08T06:26:00;16.20;1.00
15286;DHT22;7744;52.172;10.668;2023-09-08T06:28:29;16.30;1.00
15286;DHT22;7744;52.172;10.668;2023-09-08T06:30:54;16.40;99.90
15286;DHT22;7744;52.172;10.668;2023-09-08T06:33:20;16.50;1.00
15286;DHT22;7744;52.172;10.668;2023-09-08T06:35:47;16.60;99.90
15286;DHT22;7744;52.172;10.668;2023-09-08T06:38:13;16.70;1.00
15286;DHT22;7744;52.172;10.668;2023-09-08T06:40:39;16.80;1.00
15286;DHT22;7744;52.172;10.668;2023-09-08T06:43:05;16.90;1.00
15286;DHT22;7744;52.172;10.668;2023-09-08T06:45:30;17.00;1.00
15286;DHT22;7744;52.172;10.668;2023-09-08T06:47:56;17.10;1.00
15286;DHT22;7744;52.172;10.668;2023-09-08T06:50:22;17.20;1.00
15286;DHT22;7744;52.172;10.668;2023-09-08T06:52:49;17.40;1.00
15286;DHT22;7744;52.172;10.668;2023-09-08T06:55:16;18.00;1.00
15286;DHT22;7744;52.172;10.668;2023-09-08T06:57:45;18.60;99.90
15286;DHT22;7744;52.172;10.668;2023-09-08T07:00:11;18.90;10.30
15286;DHT22;7744;52.172;10.668;2023-09-08T07:02:38;18.90;1.00
15286;DHT22;7744;52.172;10.668;2023-09-08T07:05:04;18.80;1.00
15286;DHT22;7744;52.172;10.668;2023-09-08T07:07:37;18.80;1.00
15286;DHT22;7744;52.172;10.668;2023-09-08T07:10:04;18.80;1.00
15286;DHT22;7744;52.172;10.668;2023-09-08T07:12:30;18.80;1.00
15286;DHT22;7744;52.172;10.668;2023-09-08T07:14:56;18.90;1.00
15286;DHT22;7744;52.172;10.668;2023-09-08T07:17:22;19.00;1.00
15286;DHT22;7744;52.172;10.668;2023-09-08T07:19:49;19.10;1.00
15286;DHT22;7744;52.172;10.668;2023-09-08T07:22:15;19.20;1.00
15286;DHT22;7744;52.172;10.668;2023-09-08T07:24:40;19.40;1.00
15286;DHT22;7744;52.172;10.668;2023-09-08T07:27:06;19.50;1.00
15286;DHT22;7744;52.172;10.668;2023-09-08T07:29:32;19.60;1.00
15286;DHT22;7744;52.172;10.668;2023-09-08T07:31:57;19.70;1.00
15286;DHT22;7744;52.172;10.668;2023-09-08T07:34:23;19.90;1.00
15286;DHT22;7744;52.172;10.668;2023-09-08T07:36:49;20.00;1.00
15286;DHT22;7744;52.172;10.668;2023-09-08T07:39:14;20.10;1.00
15286;DHT22;7744;52.172;10.668;2023-09-08T07:41:40;20.20;1.00
15286;DHT22;7744;52.172;10.668;2023-09-08T07:44:06;20.30;1.00
15286;DHT22;7744;52.172;10.668;2023-09-08T07:46:32;20.40;99.90
15286;DHT22;7744;52.172;10.668;2023-09-08T07:48:59;20.50;99.90
15286;DHT22;7744;52.172;10.668;2023-09-08T07:51:25;20.60;99.90
15286;DHT22;7744;52.172;10.668;2023-09-08T07:53:51;20.80;99.90
15286;DHT22;7744;52.172;10.668;2023-09-08T07:56:17;20.90;99.90
15286;DHT22;7744;52.172;10.668;2023-09-08T07:58:42;21.00;99.90
15286;DHT22;7744;52.172;10.668;2023-09-08T08:01:08;21.10;99.90
15286;DHT22;7744;52.172;10.668;2023-09-08T08:03:33;21.10;99.90
15286;DHT22;7744;52.172;10.668;2023-09-08T08:06:03;21.20;99.90
15286;DHT22;7744;52.172;10.668;2023-09-08T08:08:28;21.30;99.90
15286;DHT22;7744;52.172;10.668;2023-09-08T08:10:54;21.50;99.90
15286;DHT22;7744;52.172;10.668;2023-09-08T08:13:19;21.60;99.90
15286;DHT22;7744;52.172;10.668;2023-09-08T08:15:45;21.80;99.90
15286;DHT22;7744;52.172;10.668;2023-09-08T08:18:13;21.90;99.90
15286;DHT22;7744;52.172;10.668;2023-09-08T08:20:39;22.10;99.90
15286;DHT22;7744;52.172;10.668;2023-09-08T08:23:06;22.20;99.90
15286;DHT22;7744;52.172;10.668;2023-09-08T08:25:32;22.40;99.90
15286;DHT22;7744;52.172;10.668;2023-09-08T08:27:58;22.50;90.00
15286;DHT22;7744;52.172;10.668;2023-09-08T08:30:26;22.60;68.00
15286;DHT22;7744;52.172;10.668;2023-09-08T08:32:52;22.70;61.10
15286;DHT22;7744;52.172;10.668;2023-09-08T08:35:19;22.70;32.50
15286;DHT22;7744;52.172;10.668;2023-09-08T08:37:44;22.80;33.40
15286;DHT22;7744;52.172;10.668;2023-09-08T08:40:11;22.90;30.50
15286;DHT22;7744;52.172;10.668;2023-09-08T08:42:38;23.10;13.00
15286;DHT22;7744;52.172;10.668;2023-09-08T08:45:04;23.10;1.00
15286;DHT22;7744;52.172;10.668;2023-09-08T08:47:29;23.40;1.00
15286;DHT22;7744;52.172;10.668;2023-09-08T08:49:56;23.40;1.00
15286;DHT22;7744;52.172;10.668;2023-09-08T08:52:27;23.50;1.00
15286;DHT22;7744;52.172;10.668;2023-09-08T08:54:53;23.50;1.00
15286;DHT22;7744;52.172;10.668;2023-09-08T08:57:20;23.70;1.00
15286;DHT22;7744;52.172;10.668;2023-09-08T08:59:47;23.80;1.00
15286;DHT22;7744;52.172;10.668;2023-09-08T09:02:14;23.80;1.00
15286;DHT22;7744;52.172;10.668;2023-09-08T09:04:40;23.80;1.00
15286;DHT22;7744;52.172;10.668;2023-09-08T09:07:07;23.90;1.00
15286;DHT22;7744;52.172;10.668;2023-09-08T09:09:33;24.10;1.00
15286;DHT22;7744;52.172;10.668;2023-09-08T09:11:58;24.10;1.00
15286;DHT22;7744;52.172;10.668;2023-09-08T09:14:24;24.30;1.00
15286;DHT22;7744;52.172;10.668;2023-09-08T09:16:50;24.30;1.00
15286;DHT22;7744;52.172;10.668;2023-09-08T09:19:23;24.30;1.00
15286;DHT22;7744;52.172;10.668;2023-09-08T09:21:57;24.40;1.00
15286;DHT22;7744;52.172;10.668;2023-09-08T09:27:03;24.50;1.00
15286;DHT22;7744;52.172;10.668;2023-09-08T09:29:31;24.60;1.00
15286;DHT22;7744;52.172;10.668;2023-09-08T09:32:05;24.70;1.00
15286;DHT22;7744;52.172;10.668;2023-09-08T09:34:31;24.70;1.00
15286;DHT22;7744;52.172;10.668;2023-09-08T09:36:57;24.80;1.00
15286;DHT22;7744;52.172;10.668;2023-09-08T09:39:24;25.00;1.00
15286;DHT22;7744;52.172;10.668;2023-09-08T09:41:54;25.10;1.00
15286;DHT22;7744;52.172;10.668;2023-09-08T09:44:21;25.20;1.00
15286;DHT22;7744;52.172;10.668;2023-09-08T09:46:47;25.40;1.00
15286;DHT22;7744;52.172;10.668;2023-09-08T09:49:14;25.40;1.00
15286;DHT22;7744;52.172;10.668;2023-09-08T09:51:42;25.40;1.00
15286;DHT22;7744;52.172;10.668;2023-09-08T09:54:08;25.50;1.00
15286;DHT22;7744;52.172;10.668;2023-09-08T09:56:34;25.50;1.00
15286;DHT22;7744;52.172;10.668;2023-09-08T09:59:02;25.80;1.00
15286;DHT22;7744;52.172;10.668;2023-09-08T10:01:28;25.80;1.00
15286;DHT22;7744;52.172;10.668;2023-09-08T10:03:55;26.00;1.00
15286;DHT22;7744;52.172;10.668;2023-09-08T10:06:21;25.80;1.00
15286;DHT22;7744;52.172;10.668;2023-09-08T10:08:48;25.80;1.00
15286;DHT22;7744;52.172;10.668;2023-09-08T10:11:15;25.90;1.00
15286;DHT22;7744;52.172;10.668;2023-09-08T10:13:46;26.00;1.00
15286;DHT22;7744;52.172;10.668;2023-09-08T10:16:16;26.00;1.00
15286;DHT22;7744;52.172;10.668;2023-09-08T10:18:44;26.00;1.00
15286;DHT22;7744;52.172;10.668;2023-09-08T10:21:13;26.10;1.00
15286;DHT22;7744;52.172;10.668;2023-09-08T10:23:40;26.20;99.90
15286;DHT22;7744;52.172;10.668;2023-09-08T10:26:10;26.30;99.90
15286;DHT22;7744;52.172;10.668;2023-09-08T10:28:37;26.40;99.90
15286;DHT22;7744;52.172;10.668;2023-09-08T10:31:03;26.40;99.90
15286;DHT22;7744;52.172;10.668;2023-09-08T10:33:31;26.40;99.90
15286;DHT22;7744;52.172;10.668;2023-09-08T10:35:57;26.50;99.90
15286;DHT22;7744;52.172;10.668;2023-09-08T10:38:25;26.60;99.90
15286;DHT22;7744;52.172;10.668;2023-09-08T10:40:51;26.60;99.90
15286;DHT22;7744;52.172;10.668;2023-09-08T10:43:18;26.60;99.90
15286;DHT22;7744;52.172;10.668;2023-09-08T10:45:43;26.70;99.90
15286;DHT22;7744;52.172;10.668;2023-09-08T10:48:10;26.80;99.90
15286;DHT22;7744;52.172;10.668;2023-09-08T10:50:40;26.80;99.90
15286;DHT22;7744;52.172;10.668;2023-09-08T10:53:17;26.80;99.90
15286;DHT22;7744;52.172;10.668;2023-09-08T10:55:46;27.00;99.90
15286;DHT22;7744;52.172;10.668;2023-09-08T10:58:36;27.10;99.90
15286;DHT22;7744;52.172;10.668;2023-09-08T11:01:12;27.10;99.90
15286;DHT22;7744;52.172;10.668;2023-09-08T11:06:08;27.20;99.90
15286;DHT22;7744;52.172;10.668;2023-09-08T11:08:36;27.30;99.90
15286;DHT22;7744;52.172;10.668;2023-09-08T11:11:02;27.20;99.90
15286;DHT22;7744;52.172;10.668;2023-09-08T11:13:28;27.20;99.90
15286;DHT22;7744;52.172;10.668;2023-09-08T11:15:54;27.30;99.90
15286;DHT22;7744;52.172;10.668;2023-09-08T11:18:30;27.30;99.90
15286;DHT22;7744;52.172;10.668;2023-09-08T11:20:57;27.30;99.90
15286;DHT22;7744;52.172;10.668;2023-09-08T11:23:23;27.40;99.90
15286;DHT22;7744;52.172;10.668;2023-09-08T11:25:51;27.30;99.90
15286;DHT22;7744;52.172;10.668;2023-09-08T11:28:22;27.30;99.90
15286;DHT22;7744;52.172;10.668;2023-09-08T11:30:48;27.40;99.90
15286;DHT22;7744;52.172;10.668;2023-09-08T11:33:17;27.40;99.90
15286;DHT22;7744;52.172;10.668;2023-09-08T11:35:46;27.50;99.90
15286;DHT22;7744;52.172;10.668;2023-09-08T11:38:12;27.50;99.90
15286;DHT22;7744;52.172;10.668;2023-09-08T11:40:38;27.40;99.90
15286;DHT22;7744;52.172;10.668;2023-09-08T11:43:05;27.30;99.90
15286;DHT22;7744;52.172;10.668;2023-09-08T11:45:34;27.40;99.90
15286;DHT22;7744;52.172;10.668;2023-09-08T11:48:00;27.40;99.90
15286;DHT22;7744;52.172;10.668;2023-09-08T11:50:26;27.30;99.90
15286;DHT22;7744;52.172;10.668;2023-09-08T11:52:52;27.40;99.90
15286;DHT22;7744;52.172;10.668;2023-09-08T11:55:20;27.50;99.90
15286;DHT22;7744;52.172;10.668;2023-09-08T11:57:48;26.30;99.90
15286;DHT22;7744;52.172;10.668;2023-09-08T12:00:17;27.60;99.90
15286;DHT22;7744;52.172;10.668;2023-09-08T12:02:44;27.70;99.90
15286;DHT22;7744;52.172;10.668;2023-09-08T12:05:20;27.80;99.90
15286;DHT22;7744;52.172;10.668;2023-09-08T12:07:47;27.80;99.90
15286;DHT22;7744;52.172;10.668;2023-09-08T12:10:13;27.90;99.90
15286;DHT22;7744;52.172;10.668;2023-09-08T12:12:49;28.00;99.90
15286;DHT22;7744;52.172;10.668;2023-09-08T12:15:47;27.90;99.90
15286;DHT22;7744;52.172;10.668;2023-09-08T12:18:14;27.90;99.90
15286;DHT22;7744;52.172;10.668;2023-09-08T12:20:43;27.80;99.90
15286;DHT22;7744;52.172;10.668;2023-09-08T12:25:47;28.00;99.90
15286;DHT22;7744;52.172;10.668;2023-09-08T12:28:13;28.10;99.90
15286;DHT22;7744;52.172;10.668;2023-09-08T12:30:39;28.20;99.90
15286;DHT22;7744;52.172;10.668;2023-09-08T12:33:05;28.20;99.90
15286;DHT22;7744;52.172;10.668;2023-09-08T12:35:30;28.10;99.90
15286;DHT22;7744;52.172;10.668;2023-09-08T12:38:04;27.90;99.90
15286;DHT22;7744;52.172;10.668;2023-09-08T12:40:34;27.90;99.90
15286;DHT22;7744;52.172;10.668;2023-09-08T12:42:59;28.10;99.90
15286;DHT22;7744;52.172;10.668;2023-09-08T12:45:26;28.30;99.90
15286;DHT22;7744;52.172;10.668;2023-09-08T12:47:53;28.20;99.90
15286;DHT22;7744;52.172;10.668;2023-09-08T12:50:23;28.30;99.90
15286;DHT22;7744;52.172;10.668;2023-09-08T12:52:49;28.20;99.90
15286;DHT22;7744;52.172;10.668;2023-09-08T12:55:14;28.30;99.90
15286;DHT22;7744;52.172;10.668;2023-09-08T12:57:40;28.30;99.90
15286;DHT22;7744;52.172;10.668;2023-09-08T13:00:06;28.40;99.90
15286;DHT22;7744;52.172;10.668;2023-09-08T13:02:33;28.30;99.90
15286;DHT22;7744;52.172;10.668;2023-09-08T13:04:59;28.30;99.90
15286;DHT22;7744;52.172;10.668;2023-09-08T13:07:24;28.40;99.90
15286;DHT22;7744;52.172;10.668;2023-09-08T13:09:51;28.40;99.90
15286;DHT22;7744;52.172;10.668;2023-09-08T13:12:16;28.50;99.90
15286;DHT22;7744;52.172;10.668;2023-09-08T13:14:42;28.30;99.90
15286;DHT22;7744;52.172;10.668;2023-09-08T13:17:10;28.50;99.90
15286;DHT22;7744;52.172;10.668;2023-09-08T13:19:36;28.50;1.00
15286;DHT22;7744;52.172;10.668;2023-09-08T13:22:04;28.50;99.90
15286;DHT22;7744;52.172;10.668;2023-09-08T13:24:30;28.40;99.90
15286;DHT22;7744;52.172;10.668;2023-09-08T13:26:55;28.50;99.90
15286;DHT22;7744;52.172;10.668;2023-09-08T13:31:47;28.40;99.90
15286;DHT22;7744;52.172;10.668;2023-09-08T13:34:13;28.60;1.00
15286;DHT22;7744;52.172;10.668;2023-09-08T13:36:39;28.20;1.00
15286;DHT22;7744;52.172;10.668;2023-09-08T13:39:04;28.30;99.90
15286;DHT22;7744;52.172;10.668;2023-09-08T13:41:52;28.50;99.90
15286;DHT22;7744;52.172;10.668;2023-09-08T13:44:22;28.60;99.90
15286;DHT22;7744;52.172;10.668;2023-09-08T13:46:49;28.40;1.00
15286;DHT22;7744;52.172;10.668;2023-09-08T13:49:15;28.80;1.00
15286;DHT22;7744;52.172;10.668;2023-09-08T13:51:41;28.40;1.00
15286;DHT22;7744;52.172;10.668;2023-09-08T13:54:08;28.60;1.00
15286;DHT22;7744;52.172;10.668;2023-09-08T13:56:34;28.60;1.00
15286;DHT22;7744;52.172;10.668;2023-09-08T13:59:02;28.70;1.00
15286;DHT22;7744;52.172;10.668;2023-09-08T14:01:28;28.70;99.90
15286;DHT22;7744;52.172;10.668;2023-09-08T14:03:55;28.70;99.90
15286;DHT22;7744;52.172;10.668;2023-09-08T14:06:21;28.60;99.90
15286;DHT22;7744;52.172;10.668;2023-09-08T14:08:47;28.80;1.00
15286;DHT22;7744;52.172;10.668;2023-09-08T14:11:12;28.60;99.90
15286;DHT22;7744;52.172;10.668;2023-09-08T14:13:38;28.70;99.90
15286;DHT22;7744;52.172;10.668;2023-09-08T14:16:04;28.80;99.90
15286;DHT22;7744;52.172;10.668;2023-09-08T14:18:29;28.80;1.00
15286;DHT22;7744;52.172;10.668;2023-09-08T14:20:56;28.90;1.00
15286;DHT22;7744;52.172;10.668;2023-09-08T14:23:21;28.60;99.90
15286;DHT22;7744;52.172;10.668;2023-09-08T14:25:47;28.70;99.90
15286;DHT22;7744;52.172;10.668;2023-09-08T14:28:12;28.70;99.90
15286;DHT22;7744;52.172;10.668;2023-09-08T14:30:38;28.70;99.90
15286;DHT22;7744;52.172;10.668;2023-09-08T14:33:06;28.60;1.00
15286;DHT22;7744;52.172;10.668;2023-09-08T14:35:32;28.90;99.90
15286;DHT22;7744;52.172;10.668;2023-09-08T14:37:58;28.70;1.00
15286;DHT22;7744;52.172;10.668;2023-09-08T14:40:23;28.60;99.90
15286;DHT22;7744;52.172;10.668;2023-09-08T14:42:49;28.80;99.90
15286;DHT22;7744;52.172;10.668;2023-09-08T14:45:15;28.50;1.00
15286;DHT22;7744;52.172;10.668;2023-09-08T14:47:41;28.70;99.90
15286;DHT22;7744;52.172;10.668;2023-09-08T14:50:07;28.30;1.00
15286;DHT22;7744;52.172;10.668;2023-09-08T14:52:32;28.50;1.00
15286;DHT22;7744;52.172;10.668;2023-09-08T14:54:58;28.60;1.00
15286;DHT22;7744;52.172;10.668;2023-09-08T15:02:19;28.50;1.00
15286;DHT22;7744;52.172;10.668;2023-09-08T15:04:45;28.50;1.00
15286;DHT22;7744;52.172;10.668;2023-09-08T15:07:10;28.60;99.90
15286;DHT22;7744;52.172;10.668;2023-09-08T15:09:36;28.60;99.90
15286;DHT22;7744;52.172;10.668;2023-09-08T15:12:02;28.60;1.00
15286;DHT22;7744;52.172;10.668;2023-09-08T15:14:27;28.20;1.00
15286;DHT22;7744;52.172;10.668;2023-09-08T15:16:53;28.00;1.00
15286;DHT22;7744;52.172;10.668;2023-09-08T15:19:18;28.30;1.00
15286;DHT22;7744;52.172;10.668;2023-09-08T15:24:10;28.10;1.00
15286;DHT22;7744;52.172;10.668;2023-09-08T15:26:35;28.10;1.00
15286;DHT22;7744;52.172;10.668;2023-09-08T15:29:01;28.30;1.00
15286;DHT22;7744;52.172;10.668;2023-09-08T15:31:26;28.00;99.90
15286;DHT22;7744;52.172;10.668;2023-09-08T15:33:52;27.90;1.00
15286;DHT22;7744;52.172;10.668;2023-09-08T15:36:18;28.30;1.00
15286;DHT22;7744;52.172;10.668;2023-09-08T15:38:43;28.00;99.90
15286;DHT22;7744;52.172;10.668;2023-09-08T15:43:37;28.10;99.90
15286;DHT22;7744;52.172;10.668;2023-09-08T15:46:03;28.10;1.00
15286;DHT22;7744;52.172;10.668;2023-09-08T15:48:29;28.00;99.90
15286;DHT22;7744;52.172;10.668;2023-09-08T15:50:55;28.00;99.90
15286;DHT22;7744;52.172;10.668;2023-09-08T15:53:20;27.90;99.90
15286;DHT22;7744;52.172;10.668;2023-09-08T15:55:46;27.90;99.90
15286;DHT22;7744;52.172;10.668;2023-09-08T15:58:11;27.80;99.90
15286;DHT22;7744;52.172;10.668;2023-09-08T16:15:14;27.40;1.00
15286;DHT22;7744;52.172;10.668;2023-09-08T16:17:40;27.50;1.00
15286;DHT22;7744;52.172;10.668;2023-09-08T16:20:06;27.10;1.00